Airport View

Enter AWOS ICAO identifier for current METAR.

ex. KFNL

KEWK 190656Z AUTO 35015KT 10SM CLR 07/03 A3004 RMK AO2 SLP171 T00720033

19 Apr 2019 07:07

Frequency: 123.875

Phone: 316-283-8789

Other Area AWOS: K1K1 - KAAO - KBEC - K3AU

TAF AMD KICT 190522Z 1905/2006 34013KT P6SM SKC FM191500 34017G26KT P6SM SKC